Time;durP1;ratioP1;P1;durP2;ratioP2;P2;SDS_P1;SDS_P2;PMS_P1;PMS_P2;Temp;Humidity;BMP_temperature;BMP_pressure;BME280_temperature;BME280_humidity;BME280_pressure;Samples;Min_cycle;Max_cycle;Signal;HPM_P1;HPM_P2
2023/08/19 00:03:54;;;;;;;11.75;6.03;;;21.20;99.90;;;;;;7269136;32;20128;-55
2023/08/19 00:07:56;;;;;;;10.68;5.85;;;21.10;99.90;;;;;;7272166;32;20494;-56
2023/08/19 00:11:58;;;;;;;12.60;5.65;;;21.10;99.90;;;;;;7275457;32;20120;-55
2023/08/19 00:15:59;;;;;;;11.48;5.82;;;21.10;99.90;;;;;;7272524;32;20221;-56
2023/08/19 00:20:04;;;;;;;9.63;5.62;;;21.10;99.90;;;;;;7270643;32;20446;-56
2023/08/19 00:24:06;;;;;;;8.15;5.68;;;21.10;99.90;;;;;;7274940;32;20116;-55
2023/08/19 00:28:08;;;;;;;7.87;5.95;;;21.00;99.90;;;;;;7275438;32;20167;-55
2023/08/19 00:32:10;;;;;;;7.32;5.62;;;20.90;99.90;;;;;;7278883;32;20139;-55
2023/08/19 00:36:11;;;;;;;9.63;5.93;;;20.90;99.90;;;;;;7275409;32;20608;-55
2023/08/19 00:40:14;;;;;;;13.25;6.20;;;20.80;99.90;;;;;;7274270;32;20116;-55
2023/08/19 00:44:16;;;;;;;9.65;5.78;;;20.80;99.90;;;;;;7275608;32;20112;-58
2023/08/19 00:48:19;;;;;;;6.45;5.75;;;20.70;99.90;;;;;;7275942;32;20571;-56
2023/08/19 00:52:21;;;;;;;11.30;5.50;;;20.70;99.90;;;;;;7276931;32;20266;-55
2023/08/19 00:56:24;;;;;;;10.15;5.75;;;20.70;99.90;;;;;;7279884;32;20134;-56
2023/08/19 01:00:26;;;;;;;12.32;6.28;;;20.60;99.90;;;;;;7274290;32;20168;-55
2023/08/19 01:04:27;;;;;;;9.27;5.50;;;20.50;99.90;;;;;;7271252;32;20623;-55
2023/08/19 01:08:38;;;;;;;10.90;5.95;;;20.50;99.90;;;;;;7274667;32;20127;-55
2023/08/19 01:12:45;;;;;;;9.02;5.18;;;20.40;99.90;;;;;;7279866;32;20617;-55
2023/08/19 01:16:52;;;;;;;10.05;5.50;;;20.40;99.90;;;;;;7272241;32;20157;-56
2023/08/19 01:20:54;;;;;;;10.10;5.70;;;20.30;99.90;;;;;;7271970;32;20182;-55
2023/08/19 01:24:57;;;;;;;12.23;5.93;;;20.20;99.90;;;;;;7278096;32;20171;-55
2023/08/19 01:28:58;;;;;;;10.07;6.00;;;20.20;99.90;;;;;;7270963;32;20167;-56
2023/08/19 01:33:04;;;;;;;11.32;5.60;;;20.10;99.90;;;;;;7272673;32;20274;-56
2023/08/19 01:37:13;;;;;;;10.75;5.55;;;20.00;99.90;;;;;;7278578;32;20116;-56
2023/08/19 01:41:16;;;;;;;13.88;5.72;;;20.00;99.90;;;;;;7277127;32;20146;-55
2023/08/19 01:45:18;;;;;;;9.70;5.72;;;19.90;99.90;;;;;;7272718;32;20186;-56
2023/08/19 01:49:20;;;;;;;8.27;5.62;;;19.80;99.90;;;;;;7275494;32;20242;-56
2023/08/19 01:53:24;;;;;;;12.30;5.70;;;19.80;99.90;;;;;;7277066;32;20555;-56
2023/08/19 01:57:27;;;;;;;10.77;5.50;;;19.70;99.90;;;;;;7274263;32;20207;-57
2023/08/19 02:01:29;;;;;;;7.95;5.72;;;19.60;99.90;;;;;;7268226;32;20195;-57
2023/08/19 02:05:31;;;;;;;13.25;6.25;;;19.60;99.90;;;;;;7269074;32;20108;-56
2023/08/19 02:09:32;;;;;;;12.75;6.00;;;19.50;99.90;;;;;;7268264;32;20183;-56
2023/08/19 02:13:34;;;;;;;9.65;5.82;;;19.50;99.90;;;;;;7271788;32;20581;-57
2023/08/19 02:17:36;;;;;;;14.27;5.45;;;19.40;99.90;;;;;;7273511;32;20593;-56
2023/08/19 02:21:38;;;;;;;8.50;5.30;;;19.50;99.90;;;;;;7274490;32;20143;-57
2023/08/19 02:25:39;;;;;;;10.88;5.53;;;19.40;99.90;;;;;;7268679;32;20142;-57
2023/08/19 02:29:41;;;;;;;7.12;4.97;;;19.30;99.90;;;;;;7266298;32;20207;-56
2023/08/19 02:33:43;;;;;;;14.05;5.22;;;19.40;99.90;;;;;;7269069;32;20257;-56
2023/08/19 02:37:45;;;;;;;8.85;5.00;;;19.40;99.90;;;;;;7271992;32;20140;-57
2023/08/19 02:41:46;;;;;;;9.18;4.43;;;19.40;99.90;;;;;;7269596;32;20187;-56
2023/08/19 02:45:48;;;;;;;7.50;4.80;;;19.40;99.90;;;;;;7259994;32;20101;-57
2023/08/19 02:49:50;;;;;;;6.65;4.03;;;19.50;99.90;;;;;;7260916;32;20642;-56
2023/08/19 02:53:52;;;;;;;7.22;3.67;;;19.50;99.90;;;;;;7266595;32;20135;-56
2023/08/19 02:57:53;;;;;;;6.82;4.07;;;19.70;99.90;;;;;;7265014;32;20605;-56
2023/08/19 03:01:55;;;;;;;8.55;3.47;;;19.80;99.90;;;;;;7272126;32;20116;-56
2023/08/19 03:05:59;;;;;;;4.87;3.25;;;19.90;99.90;;;;;;7269882;32;20785;-57
2023/08/19 03:10:00;;;;;;;5.72;3.30;;;20.10;99.90;;;;;;7272879;32;20108;-56
2023/08/19 03:14:02;;;;;;;6.32;3.40;;;20.30;99.90;;;;;;7271925;32;20182;-57
2023/08/19 03:18:05;;;;;;;8.23;3.97;;;20.50;99.90;;;;;;7262116;32;20104;-56
2023/08/19 03:22:06;;;;;;;4.62;3.30;;;20.60;99.90;;;;;;7269495;32;20131;-56
2023/08/19 03:26:08;;;;;;;5.18;3.10;;;20.70;99.90;;;;;;7272484;32;20150;-57
2023/08/19 03:30:10;;;;;;;6.50;3.70;;;20.70;99.90;;;;;;7271601;32;20108;-56
2023/08/19 03:34:12;;;;;;;6.80;2.67;;;20.70;99.90;;;;;;7274878;32;20107;-57
2023/08/19 03:38:15;;;;;;;5.43;3.65;;;20.80;99.90;;;;;;7268869;32;20134;-56
2023/08/19 03:42:18;;;;;;;5.60;3.35;;;20.70;99.90;;;;;;7274805;32;20254;-57
2023/08/19 03:46:19;;;;;;;8.38;3.20;;;20.70;99.90;;;;;;7269750;32;20105;-56
2023/08/19 03:50:21;;;;;;;9.13;3.17;;;20.70;99.90;;;;;;7270890;32;20630;-58
2023/08/19 03:54:23;;;;;;;8.35;3.55;;;20.70;99.90;;;;;;7270275;32;20436;-57
2023/08/19 03:58:25;;;;;;;6.22;3.25;;;20.70;99.90;;;;;;7272223;32;20145;-56
2023/08/19 04:02:26;;;;;;;5.37;3.17;;;20.60;99.90;;;;;;7274753;32;20181;-56
2023/08/19 04:06:29;;;;;;;4.95;2.97;;;20.60;99.90;;;;;;7268861;32;20483;-56
2023/08/19 04:10:30;;;;;;;7.07;3.40;;;20.60;99.90;;;;;;7273375;32;20165;-56
2023/08/19 04:14:32;;;;;;;3.78;2.65;;;20.70;99.90;;;;;;7274055;32;20618;-56
2023/08/19 04:18:34;;;;;;;7.32;2.87;;;20.70;99.90;;;;;;7274479;32;20420;-56
2023/08/19 04:22:37;;;;;;;6.87;2.85;;;20.70;99.90;;;;;;7274478;32;20451;-57
2023/08/19 04:26:39;;;;;;;5.00;2.90;;;20.80;99.90;;;;;;7271902;32;20586;-56
2023/08/19 04:30:41;;;;;;;5.50;2.85;;;20.80;99.90;;;;;;7271192;32;20104;-56
2023/08/19 04:34:42;;;;;;;4.87;2.87;;;20.90;99.90;;;;;;7269493;32;20267;-56
2023/08/19 04:38:44;;;;;;;7.37;3.30;;;20.80;99.90;;;;;;7261326;32;20239;-56
2023/08/19 04:42:46;;;;;;;8.50;3.05;;;20.90;99.90;;;;;;7273607;32;20181;-57
2023/08/19 04:46:48;;;;;;;8.05;3.22;;;20.90;99.90;;;;;;7275214;32;20188;-56
2023/08/19 04:50:49;;;;;;;7.22;3.12;;;21.00;99.90;;;;;;7275040;32;20176;-57
2023/08/19 04:54:51;;;;;;;5.07;2.80;;;21.10;99.90;;;;;;7265984;32;20163;-56
2023/08/19 04:58:54;;;;;;;9.57;2.80;;;21.10;99.90;;;;;;7274628;32;20184;-56
2023/08/19 05:02:56;;;;;;;4.68;3.10;;;21.10;99.90;;;;;;7270899;32;20130;-56
2023/08/19 05:06:58;;;;;;;6.32;2.97;;;21.10;99.90;;;;;;7255754;32;20531;-56
2023/08/19 05:10:59;;;;;;;4.47;2.87;;;21.20;99.90;;;;;;7267674;32;20191;-56
2023/08/19 05:15:01;;;;;;;4.37;3.05;;;21.20;99.90;;;;;;7273784;32;20199;-56
2023/08/19 05:19:13;;;;;;;5.55;2.83;;;21.30;99.90;;;;;;7271395;32;20242;-56
2023/08/19 05:23:15;;;;;;;4.85;2.40;;;21.30;99.90;;;;;;7268242;32;20513;-58
2023/08/19 05:27:17;;;;;;;7.22;2.40;;;21.50;99.90;;;;;;7272870;32;20112;-56
2023/08/19 05:31:19;;;;;;;9.95;3.00;;;21.60;99.90;;;;;;7273771;32;20231;-58
2023/08/19 05:35:21;;;;;;;4.10;2.83;;;21.80;99.90;;;;;;7272425;32;20206;-56
2023/08/19 05:39:22;;;;;;;4.07;2.50;;;21.90;99.90;;;;;;7272282;32;20117;-57
2023/08/19 05:43:24;;;;;;;4.82;2.30;;;22.10;99.90;;;;;;7269160;32;20263;-65
2023/08/19 05:47:26;;;;;;;4.22;2.30;;;22.20;99.90;;;;;;7263639;32;20199;-64
2023/08/19 05:51:28;;;;;;;3.17;2.33;;;22.20;99.90;;;;;;7272859;32;20722;-64
2023/08/19 05:55:29;;;;;;;7.50;2.33;;;22.30;99.90;;;;;;7272572;32;20108;-63
2023/08/19 05:59:31;;;;;;;4.68;2.50;;;22.30;99.90;;;;;;7273984;32;20225;-63
2023/08/19 06:03:33;;;;;;;6.00;2.50;;;22.30;99.90;;;;;;7269032;32;20201;-64
2023/08/19 06:07:37;;;;;;;6.93;2.53;;;22.40;99.90;;;;;;7268285;32;20142;-65
2023/08/19 06:11:47;;;;;;;6.18;2.28;;;22.50;99.90;;;;;;7274884;32;20198;-65
2023/08/19 06:15:50;;;;;;;2.92;2.08;;;22.50;99.90;;;;;;7271392;32;20104;-64
2023/08/19 06:19:52;;;;;;;3.90;1.95;;;22.60;99.90;;;;;;7271813;32;20211;-63
2023/08/19 06:23:53;;;;;;;5.07;2.28;;;22.60;99.90;;;;;;7272729;32;20363;-65
2023/08/19 06:27:55;;;;;;;3.70;2.40;;;22.70;99.90;;;;;;7270168;32;20218;-63
2023/08/19 06:31:57;;;;;;;3.42;1.90;;;22.80;99.90;;;;;;7275463;32;20109;-65
2023/08/19 06:36:00;;;;;;;7.10;2.58;;;22.80;99.90;;;;;;7268284;32;20135;-65
2023/08/19 06:40:06;;;;;;;4.97;2.60;;;22.80;99.90;;;;;;7272072;32;20687;-65
2023/08/19 06:44:09;;;;;;;6.77;2.40;;;22.90;99.90;;;;;;7273124;32;20847;-63
2023/08/19 06:48:15;;;;;;;4.18;2.47;;;23.10;99.90;;;;;;7274397;32;20553;-63
2023/08/19 06:52:17;;;;;;;4.68;2.50;;;23.10;99.90;;;;;;7269596;32;20530;-64
2023/08/19 06:56:24;;;;;;;7.75;2.95;;;23.20;99.90;;;;;;7268067;32;20131;-64
2023/08/19 07:00:26;;;;;;;5.43;2.50;;;23.20;99.90;;;;;;7271817;32;20561;-64
2023/08/19 07:04:29;;;;;;;3.40;2.47;;;23.20;99.90;;;;;;7269504;32;20569;-65
2023/08/19 07:08:33;;;;;;;4.20;2.30;;;23.40;99.90;;;;;;7268651;32;20139;-64
2023/08/19 07:12:35;;;;;;;6.25;2.50;;;23.50;99.90;;;;;;7270616;32;20113;-64
2023/08/19 07:16:38;;;;;;;7.12;2.30;;;23.50;99.90;;;;;;7269349;32;20336;-58
2023/08/19 07:20:40;;;;;;;4.65;1.98;;;23.70;99.90;;;;;;7265879;32;20466;-56
2023/08/19 07:24:43;;;;;;;4.55;2.25;;;23.80;99.90;;;;;;7268184;32;20231;-57
2023/08/19 07:28:45;;;;;;;6.75;2.40;;;23.80;99.90;;;;;;7271726;32;20143;-57
2023/08/19 07:32:47;;;;;;;4.90;2.37;;;23.90;99.90;;;;;;7268977;32;20108;-55
2023/08/19 07:36:49;;;;;;;5.03;2.33;;;24.00;99.90;;;;;;7267241;32;20107;-56
2023/08/19 07:40:51;;;;;;;4.22;2.20;;;23.90;99.90;;;;;;7268828;32;20125;-56
2023/08/19 07:44:53;;;;;;;5.00;2.60;;;24.00;99.90;;;;;;7264485;32;20628;-56
2023/08/19 07:48:54;;;;;;;7.07;2.58;;;24.10;99.90;;;;;;7264040;32;20691;-57
2023/08/19 07:52:56;;;;;;;5.03;2.50;;;24.20;99.90;;;;;;7265205;32;21108;-54
2023/08/19 07:56:58;;;;;;;4.10;1.80;;;24.30;99.90;;;;;;7267100;32;20180;-57
2023/08/19 08:01:00;;;;;;;5.35;2.33;;;24.40;99.90;;;;;;7265911;32;20525;-56
2023/08/19 08:05:02;;;;;;;4.30;2.67;;;24.50;99.90;;;;;;7265375;32;21077;-56
2023/08/19 08:09:04;;;;;;;3.70;2.35;;;24.50;99.90;;;;;;7273173;32;20137;-57
2023/08/19 08:13:06;;;;;;;5.53;2.45;;;24.60;99.90;;;;;;7267139;32;20240;-56
2023/08/19 08:17:08;;;;;;;5.62;2.25;;;24.80;99.90;;;;;;7272229;32;20136;-57
2023/08/19 08:21:09;;;;;;;4.40;2.30;;;25.10;99.90;;;;;;7271166;32;20424;-57
2023/08/19 08:25:11;;;;;;;4.87;2.47;;;25.20;99.90;;;;;;7271910;32;20112;-56
2023/08/19 08:29:13;;;;;;;5.07;2.45;;;25.50;99.90;;;;;;7271747;32;20112;-56
2023/08/19 08:33:15;;;;;;;4.62;2.45;;;25.50;99.90;;;;;;7271188;32;20211;-56
2023/08/19 08:37:17;;;;;;;5.65;2.50;;;25.60;99.90;;;;;;7268024;32;20169;-57
2023/08/19 08:41:18;;;;;;;4.53;2.80;;;25.60;99.90;;;;;;7265587;32;20292;-56
2023/08/19 08:45:21;;;;;;;5.43;2.72;;;25.60;99.90;;;;;;7273348;32;20209;-56
2023/08/19 08:49:27;;;;;;;4.55;2.53;;;25.50;99.90;;;;;;7270205;32;20207;-57
2023/08/19 08:53:29;;;;;;;2.95;2.10;;;25.50;99.90;;;;;;7276576;32;20104;-57
2023/08/19 08:57:31;;;;;;;7.28;2.60;;;25.60;99.90;;;;;;7275103;32;20186;-63
2023/08/19 09:01:35;;;;;;;4.90;2.40;;;25.80;99.90;;;;;;7273474;32;20428;-64
2023/08/19 09:05:40;;;;;;;5.65;2.40;;;25.90;99.90;;;;;;7279822;32;20139;-65
2023/08/19 09:09:45;;;;;;;4.80;2.55;;;26.00;99.90;;;;;;7268838;32;20263;-56
2023/08/19 09:13:51;;;;;;;5.55;2.33;;;26.80;99.90;;;;;;7273164;32;20227;-57
2023/08/19 09:17:53;;;;;;;5.33;2.47;;;27.50;99.90;;;;;;7272206;32;20288;-58
2023/08/19 09:21:55;;;;;;;3.60;2.83;;;27.40;99.90;;;;;;7274130;32;20195;-56
2023/08/19 09:25:58;;;;;;;6.53;2.47;;;27.40;99.90;;;;;;7276712;32;20184;-57
2023/08/19 09:30:00;;;;;;;5.03;2.47;;;27.30;99.90;;;;;;7276747;32;20109;-56
2023/08/19 09:34:02;;;;;;;4.62;2.60;;;27.20;99.90;;;;;;7271516;32;20116;-57
2023/08/19 09:38:04;;;;;;;8.73;2.42;;;27.20;99.90;;;;;;7273720;32;20309;-57
2023/08/19 09:42:09;;;;;;;6.00;2.72;;;27.30;99.90;;;;;;7270720;32;20144;-57
2023/08/19 09:46:10;;;;;;;3.97;2.25;;;27.50;99.90;;;;;;7267043;32;20104;-55
2023/08/19 09:50:12;;;;;;;4.18;2.60;;;27.70;99.90;;;;;;7269301;32;20193;-58
2023/08/19 09:54:14;;;;;;;5.12;2.72;;;27.80;99.90;;;;;;7269619;32;20309;-57
2023/08/19 09:58:16;;;;;;;3.28;2.65;;;27.90;99.90;;;;;;7275781;32;20137;-57
2023/08/19 10:02:18;;;;;;;6.80;3.12;;;28.10;99.90;;;;;;7272724;32;20243;-57
2023/08/19 10:06:28;;;;;;;4.65;2.83;;;28.30;99.90;;;;;;7267402;32;20451;-57
2023/08/19 10:10:31;;;;;;;5.55;3.03;;;28.20;99.90;;;;;;7270897;32;20116;-57
2023/08/19 10:14:33;;;;;;;4.60;3.03;;;28.30;99.90;;;;;;7276773;32;20380;-58
2023/08/19 10:18:36;;;;;;;8.30;3.15;;;28.80;99.90;;;;;;7274653;32;20553;-57
2023/08/19 10:22:41;;;;;;;3.53;2.75;;;28.80;99.90;;;;;;7272610;32;20471;-57
2023/08/19 10:26:49;;;;;;;7.32;3.85;;;29.00;99.90;;;;;;7271370;32;20120;-58
2023/08/19 10:31:12;;;;;;;6.68;3.55;;;29.30;99.90;;;;;;7267860;32;20226;-58
2023/08/19 10:35:16;;;;;;;7.15;3.70;;;29.40;99.90;;;;;;7268864;32;20182;-57
2023/08/19 10:39:18;;;;;;;7.37;3.72;;;29.50;99.90;;;;;;7270101;32;20519;-56
2023/08/19 10:43:19;;;;;;;7.28;4.57;;;29.50;99.90;;;;;;7269228;32;20396;-56
2023/08/19 10:47:21;;;;;;;7.90;4.00;;;29.10;99.90;;;;;;7272561;32;20161;-56
2023/08/19 10:51:53;;;;;;;7.53;4.47;;;28.70;99.90;;;;;;7273991;32;20113;-58
2023/08/19 10:55:55;;;;;;;7.30;4.28;;;29.00;99.90;;;;;;7275169;32;20284;-56
2023/08/19 10:59:59;;;;;;;8.30;4.20;;;29.00;99.90;;;;;;7265340;32;20131;-57
2023/08/19 11:04:01;;;;;;;12.10;4.68;;;28.80;99.90;;;;;;7267180;32;20130;-57
2023/08/19 11:08:06;;;;;;;9.45;3.95;;;28.70;99.90;;;;;;7275300;32;20199;-57
2023/08/19 11:12:10;;;;;;;5.55;3.90;;;28.60;99.90;;;;;;7270996;32;20124;-57
2023/08/19 11:16:11;;;;;;;8.00;4.87;;;28.30;99.90;;;;;;7270534;32;20119;-56
2023/08/19 11:20:15;;;;;;;9.23;5.35;;;28.00;99.90;;;;;;7273577;32;20203;-57
2023/08/19 11:24:17;;;;;;;9.63;4.93;;;27.70;99.90;;;;;;7275377;32;20225;-57
2023/08/19 11:28:19;;;;;;;9.02;5.40;;;27.40;99.90;;;;;;7265515;32;20190;-57
2023/08/19 11:32:21;;;;;;;7.55;5.53;;;27.10;99.90;;;;;;7266949;32;20156;-57
2023/08/19 11:36:26;;;;;;;11.43;5.97;;;26.90;99.90;;;;;;7270462;32;20166;-57
2023/08/19 11:40:34;;;;;;;9.20;6.03;;;27.00;99.90;;;;;;7268321;32;20101;-57
2023/08/19 11:44:36;;;;;;;9.43;5.55;;;27.30;99.90;;;;;;7267116;32;20112;-57
2023/08/19 11:48:38;;;;;;;9.20;5.68;;;27.40;99.90;;;;;;7264342;32;20265;-57
2023/08/19 11:52:49;;;;;;;6.75;5.10;;;27.40;99.90;;;;;;7266088;32;20173;-57
2023/08/19 11:56:52;;;;;;;7.68;6.20;;;27.40;99.90;;;;;;7267958;32;20112;-56
2023/08/19 12:00:55;;;;;;;8.95;6.05;;;27.70;99.90;;;;;;7267253;32;20384;-57
2023/08/19 12:04:57;;;;;;;9.32;5.97;;;27.70;99.90;;;;;;7269301;32;20302;-57
2023/08/19 12:08:59;;;;;;;9.70;7.25;;;27.70;99.90;;;;;;7272705;32;20108;-57
2023/08/19 12:13:00;;;;;;;10.73;6.50;;;27.50;99.90;;;;;;7269610;32;20139;-57
2023/08/19 12:17:04;;;;;;;9.80;7.20;;;27.40;99.90;;;;;;7269691;32;20191;-58
2023/08/19 12:21:06;;;;;;;10.10;6.95;;;27.20;99.90;;;;;;7278196;32;20537;-57
2023/08/19 12:25:09;;;;;;;11.63;7.45;;;27.00;99.90;;;;;;7274255;32;20660;-57
2023/08/19 12:29:11;;;;;;;9.23;7.25;;;26.90;99.90;;;;;;7275784;32;20128;-56
2023/08/19 12:33:14;;;;;;;10.48;7.57;;;26.90;99.90;;;;;;7274044;32;20279;-57
2023/08/19 12:37:15;;;;;;;14.27;8.18;;;26.90;99.90;;;;;;7277612;32;20310;-57
2023/08/19 12:41:17;;;;;;;11.23;8.25;;;26.80;99.90;;;;;;7277600;32;20138;-57
2023/08/19 12:45:19;;;;;;;9.45;8.07;;;26.70;99.90;;;;;;7274670;32;20565;-57
2023/08/19 12:49:21;;;;;;;9.00;7.78;;;26.70;99.90;;;;;;7268035;32;20143;-57
2023/08/19 12:53:23;;;;;;;11.05;8.25;;;26.60;99.90;;;;;;7281293;32;20119;-57
2023/08/19 12:57:25;;;;;;;10.27;8.20;;;26.60;99.90;;;;;;7280202;32;20212;-56
2023/08/19 13:01:26;;;;;;;12.30;8.52;;;26.40;99.90;;;;;;7270528;32;20258;-56
2023/08/19 13:05:28;;;;;;;12.45;9.10;;;26.30;99.90;;;;;;7279026;32;20120;-57
2023/08/19 13:09:30;;;;;;;9.50;8.48;;;26.30;99.90;;;;;;7275849;32;20923;-56
2023/08/19 13:13:32;;;;;;;15.60;10.57;;;26.20;99.90;;;;;;7277286;32;20517;-57
2023/08/19 13:17:33;;;;;;;13.23;9.52;;;26.10;99.90;;;;;;7292795;32;20247;-57
2023/08/19 13:21:35;;;;;;;10.68;9.57;;;26.00;99.90;;;;;;7279325;32;20266;-56
2023/08/19 13:25:37;;;;;;;11.82;9.50;;;25.80;99.90;;;;;;7277186;32;20257;-57
2023/08/19 13:29:39;;;;;;;12.68;10.25;;;25.60;99.90;;;;;;7274204;32;20231;-56
2023/08/19 13:33:40;;;;;;;12.48;9.63;;;25.60;99.90;;;;;;7274608;32;20190;-57
2023/08/19 13:37:42;;;;;;;14.23;9.07;;;25.50;99.90;;;;;;7273370;32;20556;-56
2023/08/19 13:41:44;;;;;;;9.50;8.48;;;25.40;99.90;;;;;;7276409;32;20274;-57
2023/08/19 13:45:46;;;;;;;10.57;8.20;;;25.20;99.90;;;;;;7267925;32;20547;-59
2023/08/19 13:49:48;;;;;;;9.25;7.45;;;25.10;99.90;;;;;;7273760;32;20121;-57
2023/08/19 13:53:50;;;;;;;10.27;7.25;;;24.90;99.90;;;;;;7274011;32;20134;-56
2023/08/19 13:57:53;;;;;;;7.87;6.90;;;24.60;99.90;;;;;;7273661;32;20108;-56
2023/08/19 14:01:55;;;;;;;8.32;7.20;;;24.50;99.90;;;;;;7272125;32;20223;-57
2023/08/19 14:05:57;;;;;;;8.93;7.32;;;24.40;99.90;;;;;;7284251;32;20180;-58
2023/08/19 14:09:59;;;;;;;10.93;7.68;;;24.40;99.90;;;;;;7273252;32;20258;-57
2023/08/19 14:14:01;;;;;;;8.50;7.35;;;24.20;99.90;;;;;;7275290;32;20119;-57
2023/08/19 14:18:03;;;;;;;9.57;6.90;;;24.10;99.90;;;;;;7275542;32;20151;-57
2023/08/19 14:22:05;;;;;;;9.10;6.47;;;23.90;99.90;;;;;;7270240;32;20142;-57
2023/08/19 14:26:06;;;;;;;9.50;7.10;;;23.90;99.90;;;;;;7275132;32;20136;-57
2023/08/19 14:30:09;;;;;;;10.23;7.15;;;23.80;99.90;;;;;;7273367;32;20175;-57
2023/08/19 14:34:10;;;;;;;9.80;7.80;;;23.70;99.90;;;;;;7270324;32;20167;-57
2023/08/19 14:38:12;;;;;;;8.02;7.22;;;23.50;99.90;;;;;;7272271;32;20565;-58
2023/08/19 14:42:14;;;;;;;9.40;7.72;;;23.30;99.90;;;;;;7274712;32;20619;-57
2023/08/19 14:46:16;;;;;;;9.15;6.85;;;23.10;99.90;;;;;;7276013;32;20530;-57
2023/08/19 14:50:17;;;;;;;7.35;6.65;;;23.00;99.90;;;;;;7268190;32;20588;-58
2023/08/19 14:54:19;;;;;;;8.63;7.72;;;23.10;99.90;;;;;;7265882;32;20138;-57
2023/08/19 14:58:21;;;;;;;8.35;7.55;;;23.10;99.90;;;;;;7271028;32;20265;-56
2023/08/19 15:02:42;;;;;;;8.20;7.40;;;23.20;99.90;;;;;;7265787;32;20510;-59
2023/08/19 15:06:44;;;;;;;13.18;7.75;;;23.30;99.90;;;;;;7274654;32;20146;-57
2023/08/19 15:10:45;;;;;;;9.55;7.00;;;23.30;99.90;;;;;;7275837;32;20191;-57
2023/08/19 15:14:47;;;;;;;13.55;6.87;;;23.50;99.90;;;;;;7275140;32;20883;-57
2023/08/19 15:18:49;;;;;;;8.57;6.82;;;23.60;99.90;;;;;;7271126;32;20119;-57
2023/08/19 15:22:50;;;;;;;12.63;6.72;;;23.80;99.90;;;;;;7276215;32;20790;-58
2023/08/19 15:26:52;;;;;;;11.10;7.72;;;24.00;99.90;;;;;;7275902;32;20112;-57
2023/08/19 15:30:54;;;;;;;9.77;7.93;;;24.10;99.90;;;;;;7275453;32;20470;-57
2023/08/19 15:34:56;;;;;;;10.68;7.55;;;24.20;99.90;;;;;;7267760;32;20131;-56
2023/08/19 15:38:57;;;;;;;10.23;4.95;;;24.30;99.90;;;;;;7268143;32;20199;-57
2023/08/19 15:43:01;;;;;;;7.25;4.40;;;24.30;99.90;;;;;;7273801;32;20104;-56
2023/08/19 15:47:03;;;;;;;5.40;3.50;;;24.30;99.90;;;;;;7264311;32;20112;-57
2023/08/19 15:51:05;;;;;;;4.03;2.67;;;24.30;99.90;;;;;;7264466;32;20122;-57
2023/08/19 15:55:08;;;;;;;4.78;2.72;;;24.10;99.90;;;;;;7267849;32;20223;-58
2023/08/19 15:59:10;;;;;;;3.70;2.60;;;24.00;99.90;;;;;;7271721;32;20808;-58
2023/08/19 16:03:12;;;;;;;4.37;2.95;;;24.00;99.90;;;;;;7269204;32;20605;-57
2023/08/19 16:07:15;;;;;;;3.97;2.53;;;23.90;99.90;;;;;;7270522;32;20100;-58
2023/08/19 16:11:17;;;;;;;4.55;2.75;;;23.90;99.90;;;;;;7260433;32;20120;-57
2023/08/19 16:15:18;;;;;;;5.40;2.78;;;24.10;99.90;;;;;;7265906;32;20155;-57
2023/08/19 16:19:20;;;;;;;3.95;2.80;;;24.20;99.90;;;;;;7269816;32;20687;-56
2023/08/19 16:23:22;;;;;;;3.72;2.85;;;24.20;99.90;;;;;;7266180;32;20628;-57
2023/08/19 16:27:24;;;;;;;3.87;2.70;;;24.10;99.90;;;;;;7261809;32;20546;-57
2023/08/19 16:31:25;;;;;;;3.28;2.97;;;24.10;99.90;;;;;;7262737;32;20223;-57
2023/08/19 16:35:27;;;;;;;5.03;3.40;;;24.10;99.90;;;;;;7271325;32;20733;-58
2023/08/19 16:39:29;;;;;;;5.97;3.53;;;24.10;99.90;;;;;;7264302;32;20116;-57
2023/08/19 16:43:31;;;;;;;4.95;3.33;;;24.10;99.90;;;;;;7268869;32;20159;-57
2023/08/19 16:47:32;;;;;;;4.25;3.47;;;24.10;99.90;;;;;;7264120;32;20283;-58
2023/08/19 16:51:34;;;;;;;3.85;3.37;;;24.10;99.90;;;;;;7262631;32;20119;-56
2023/08/19 16:55:36;;;;;;;4.60;4.03;;;24.10;99.90;;;;;;7270115;32;20191;-55
2023/08/19 16:59:38;;;;;;;6.03;3.97;;;24.10;99.90;;;;;;7268691;32;20171;-57
2023/08/19 17:03:40;;;;;;;4.30;3.37;;;24.00;99.90;;;;;;7269709;32;20100;-58
2023/08/19 17:07:42;;;;;;;5.35;3.60;;;23.90;99.90;;;;;;7270524;32;20116;-57
2023/08/19 17:11:44;;;;;;;4.85;4.40;;;23.90;99.90;;;;;;7270182;32;20225;-57
2023/08/19 17:15:50;;;;;;;6.18;4.05;;;24.00;99.90;;;;;;7270562;32;20546;-57
2023/08/19 17:19:52;;;;;;;;;;;24.00;99.90;;;;;;7273918;32;20100;-56
2023/08/19 17:23:54;;;;;;;5.25;4.62;;;23.90;99.90;;;;;;7268347;32;20461;-57
2023/08/19 17:27:56;;;;;;;6.82;4.37;;;23.80;99.90;;;;;;7272020;32;20578;-57
2023/08/19 17:31:57;;;;;;;4.93;3.90;;;23.80;99.90;;;;;;7266318;32;20134;-58
2023/08/19 17:36:01;;;;;;;6.25;3.80;;;23.80;99.90;;;;;;7268554;32;20285;-57
2023/08/19 17:40:09;;;;;;;4.93;3.50;;;23.80;99.90;;;;;;7266210;32;20119;-57
2023/08/19 17:44:11;;;;;;;4.85;4.10;;;23.80;99.90;;;;;;7275991;32;20109;-57
2023/08/19 17:48:13;;;;;;;4.50;3.70;;;23.70;99.90;;;;;;7267803;32;20108;-58
2023/08/19 17:52:15;;;;;;;4.18;3.55;;;23.60;99.90;;;;;;7268724;32;20140;-56
2023/08/19 17:56:16;;;;;;;4.18;3.50;;;23.50;99.90;;;;;;7275277;32;20195;-57
2023/08/19 18:00:18;;;;;;;5.82;3.60;;;23.30;99.90;;;;;;7273428;32;20128;-57
2023/08/19 18:04:20;;;;;;;6.65;4.57;;;23.20;99.90;;;;;;7266449;32;20183;-57
2023/08/19 18:08:22;;;;;;;7.07;5.20;;;23.10;99.90;;;;;;7267276;32;20431;-56
2023/08/19 18:12:23;;;;;;;5.95;4.80;;;22.90;99.90;;;;;;7271143;32;20116;-57
2023/08/19 18:16:25;;;;;;;5.80;4.72;;;22.90;99.90;;;;;;7268680;32;20468;-57
2023/08/19 18:20:27;;;;;;;5.72;4.68;;;22.90;99.90;;;;;;7272008;32;21058;-53
2023/08/19 18:24:30;;;;;;;7.60;5.50;;;22.70;99.90;;;;;;7268690;32;20175;-53
2023/08/19 18:28:32;;;;;;;6.20;4.62;;;22.60;99.90;;;;;;7271320;32;20224;-53
2023/08/19 18:32:33;;;;;;;6.62;4.35;;;22.50;99.90;;;;;;7269846;32;20139;-53
2023/08/19 18:36:35;;;;;;;6.85;4.05;;;22.40;99.90;;;;;;7270832;32;20123;-55
2023/08/19 18:40:38;;;;;;;4.20;3.45;;;22.30;99.90;;;;;;7268976;32;20199;-57
2023/08/19 18:44:39;;;;;;;4.12;3.70;;;22.20;99.90;;;;;;7269610;32;20448;-57
2023/08/19 18:48:41;;;;;;;6.25;4.40;;;22.00;99.90;;;;;;7269665;32;20101;-57
2023/08/19 18:52:43;;;;;;;5.55;4.30;;;21.90;99.90;;;;;;7272919;32;20128;-57
2023/08/19 18:56:45;;;;;;;7.40;4.40;;;21.70;99.90;;;;;;7265754;32;20104;-57
2023/08/19 19:00:46;;;;;;;6.25;4.45;;;21.60;99.90;;;;;;7272113;32;20714;-56
2023/08/19 19:04:48;;;;;;;5.55;4.50;;;21.50;99.90;;;;;;7270888;32;20104;-59
2023/08/19 19:08:50;;;;;;;12.50;5.05;;;21.40;99.90;;;;;;7270127;32;20784;-56
2023/08/19 19:12:52;;;;;;;7.87;4.95;;;21.20;99.90;;;;;;7270379;32;20096;-57
2023/08/19 19:16:53;;;;;;;7.97;4.60;;;21.20;99.90;;;;;;7267116;32;20191;-57
2023/08/19 19:20:55;;;;;;;6.05;4.50;;;21.00;99.90;;;;;;7272385;32;20220;-56
2023/08/19 19:24:57;;;;;;;9.35;5.40;;;20.90;99.90;;;;;;7276573;32;20391;-57
2023/08/19 19:28:59;;;;;;;7.28;5.05;;;20.80;99.90;;;;;;7268791;32;20216;-57
2023/08/19 19:33:00;;;;;;;7.53;4.47;;;20.70;99.90;;;;;;7263137;32;20177;-56
2023/08/19 19:37:02;;;;;;;6.28;4.62;;;20.60;99.90;;;;;;7285984;32;20123;-56
2023/08/19 19:41:04;;;;;;;6.93;4.95;;;20.60;99.90;;;;;;7270075;32;20165;-57
2023/08/19 19:45:07;;;;;;;8.02;4.80;;;20.50;99.90;;;;;;7270039;32;20135;-55
2023/08/19 19:49:09;;;;;;;8.80;5.40;;;20.40;99.90;;;;;;7267384;32;20104;-55
2023/08/19 19:53:11;;;;;;;7.37;4.72;;;20.30;99.90;;;;;;7268043;32;20782;-55
2023/08/19 19:57:13;;;;;;;8.70;4.47;;;20.20;99.90;;;;;;7269529;32;20191;-57
2023/08/19 20:01:15;;;;;;;8.68;5.07;;;20.10;99.90;;;;;;7260402;32;20259;-55
2023/08/19 20:05:17;;;;;;;6.10;4.57;;;20.00;99.90;;;;;;7267015;32;20096;-55
2023/08/19 20:09:22;;;;;;;9.10;5.50;;;20.00;99.90;;;;;;7265001;32;20108;-55
2023/08/19 20:13:23;;;;;;;8.80;5.35;;;19.90;99.90;;;;;;7268858;32;20533;-55
2023/08/19 20:17:25;;;;;;;10.35;5.60;;;19.80;99.90;;;;;;7267805;32;20112;-55
2023/08/19 20:21:28;;;;;;;10.30;5.37;;;19.70;99.90;;;;;;7269722;32;20123;-57
2023/08/19 20:25:30;;;;;;;13.35;5.40;;;19.60;99.90;;;;;;7269546;32;20823;-55
2023/08/19 20:29:31;;;;;;;9.57;5.30;;;19.60;99.90;;;;;;7271665;32;20147;-55
2023/08/19 20:33:33;;;;;;;7.43;4.75;;;19.60;99.90;;;;;;7266837;32;20149;-55
2023/08/19 20:37:35;;;;;;;5.47;4.65;;;19.50;99.90;;;;;;7270664;32;20509;-55
2023/08/19 20:41:37;;;;;;;5.18;4.70;;;19.50;99.90;;;;;;7274615;32;20187;-59
2023/08/19 20:45:39;;;;;;;7.22;4.87;;;19.40;99.90;;;;;;7278579;32;20246;-56
2023/08/19 20:49:41;;;;;;;12.05;5.40;;;19.30;99.90;;;;;;7274551;32;20104;-56
2023/08/19 20:53:42;;;;;;;7.90;5.15;;;19.30;99.90;;;;;;7275545;32;20803;-55
2023/08/19 20:57:44;;;;;;;8.02;4.90;;;19.20;99.90;;;;;;7271095;32;20707;-55
2023/08/19 21:01:46;;;;;;;11.73;5.57;;;19.10;99.90;;;;;;7271983;32;20221;-55